Terminal Aerodrome Forecast
Issued by NWS Wilmington, OH

Current Version | Previous Version | Graphics & Text | Print | Product List | Glossary On
Versions: 1 2 3 4 5 6 7 8 9 10 11 12 13 14 15 16
252
FTUS41 KILN 091410 AAA
TAFDAY
TAF AMD
KDAY 091410Z 0914/1012 28014KT 6SM -SN OVC012
     FM091600 28014G22KT 5SM -SHSN BKN012 OVC022
     FM100000 28012KT P6SM VCSH OVC025=

USA.gov is the U.S. government's official web portal to all federal, state and local government web resources and services.